Time;durP1;ratioP1;P1;durP2;ratioP2;P2;SDS_P1;SDS_P2;PMS_P1;PMS_P2;Temp;Humidity;BMP_temperature;BMP_pressure;BME280_temperature;BME280_humidity;BME280_pressure;Samples;Min_cycle;Max_cycle;Signal;HPM_P1;HPM_P2
2022/12/05 00:02:04;;;;;;;19.42;8.10;;;;;;;5.76;100.00;100015.91;5013946;28;20429;-68
2022/12/05 00:04:29;;;;;;;21.02;9.45;;;;;;;5.83;100.00;100014.06;5021423;28;20037;-68
2022/12/05 00:06:55;;;;;;;26.60;11.05;;;;;;;5.84;100.00;100029.88;5030036;28;20025;-68
2022/12/05 00:09:20;;;;;;;21.88;9.57;;;;;;;5.86;100.00;100024.59;5032072;28;20025;-68
2022/12/05 00:11:46;;;;;;;23.38;9.38;;;;;;;5.81;100.00;100018.47;5016164;28;20095;-68
2022/12/05 00:14:12;;;;;;;23.08;10.77;;;;;;;5.80;100.00;100022.00;5013538;28;20477;-68
2022/12/05 00:16:39;;;;;;;23.42;9.80;;;;;;;5.79;100.00;100028.16;5015900;28;20488;-68
2022/12/05 00:19:06;;;;;;;24.25;10.57;;;;;;;5.80;100.00;100022.84;5013576;28;20061;-68
2022/12/05 00:21:34;;;;;;;19.98;9.90;;;;;;;5.83;100.00;100024.63;5013993;28;20029;-68
2022/12/05 00:24:00;;;;;;;22.23;11.15;;;;;;;5.78;100.00;100035.22;5014610;28;20037;-68
2022/12/05 00:26:27;;;;;;;28.13;10.60;;;;;;;5.76;100.00;100030.84;5013587;28;20082;-67
2022/12/05 00:28:53;;;;;;;25.08;11.35;;;;;;;5.72;100.00;100026.50;5015722;28;20102;-68
2022/12/05 00:31:21;;;;;;;26.70;12.57;;;;;;;5.75;100.00;100029.97;5013486;28;20036;-68
2022/12/05 00:33:47;;;;;;;23.77;10.98;;;;;;;5.73;100.00;100033.53;5018071;28;20037;-68
2022/12/05 00:36:22;;;;;;;25.42;12.82;;;;;;;5.77;100.00;100022.91;5013301;28;20033;-68
2022/12/05 00:38:48;;;;;;;22.52;10.43;;;;;;;5.80;100.00;100024.66;5013533;28;20529;-68
2022/12/05 00:41:20;;;;;;;26.80;12.77;;;;;;;5.79;100.00;100025.53;5015635;28;20025;-68
2022/12/05 00:43:46;;;;;;;35.78;12.35;;;;;;;5.81;100.00;100027.25;5012268;28;20024;-68
2022/12/05 00:46:15;;;;;;;28.40;12.30;;;;;;;5.81;100.00;100013.19;5015139;28;20025;-68
2022/12/05 00:48:41;;;;;;;24.83;11.00;;;;;;;5.81;100.00;100018.47;5019868;28;20052;-68
2022/12/05 00:51:13;;;;;;;27.23;12.02;;;;;;;5.80;100.00;100016.72;5015143;28;20025;-67
2022/12/05 00:53:39;;;;;;;25.20;10.32;;;;;;;5.83;100.00;100020.22;5016031;28;20018;-68
2022/12/05 00:56:08;;;;;;;25.40;11.13;;;;;;;5.86;100.00;100014.91;5012986;28;20029;-67
2022/12/05 00:58:34;;;;;;;26.67;11.23;;;;;;;5.90;100.00;100018.34;5015194;28;20038;-68
2022/12/05 01:01:06;;;;;;;22.70;11.27;;;;;;;5.88;100.00;100018.38;5012906;28;20040;-68
2022/12/05 01:03:31;;;;;;;28.85;10.65;;;;;;;5.86;100.00;100008.75;5017041;28;20044;-67
2022/12/05 01:05:58;;;;;;;25.00;11.10;;;;;;;5.78;100.00;99997.41;5013395;28;20413;-68
2022/12/05 01:08:23;;;;;;;24.77;10.02;;;;;;;5.86;100.00;100019.31;5016835;28;20092;-67
2022/12/05 01:10:56;;;;;;;22.38;10.77;;;;;;;5.79;100.00;100021.13;5027972;28;20515;-67
2022/12/05 01:13:22;;;;;;;20.00;10.48;;;;;;;5.81;100.00;100023.75;5032440;28;20083;-67
2022/12/05 01:15:47;;;;;;;23.42;11.52;;;;;;;5.80;100.00;100022.00;5028896;28;20109;-67
2022/12/05 01:18:13;;;;;;;21.30;10.07;;;;;;;5.83;100.00;100022.00;5012676;28;20029;-67
2022/12/05 01:20:39;;;;;;;25.20;11.23;;;;;;;5.85;100.00;100031.63;5012414;28;20032;-68
2022/12/05 01:23:05;;;;;;;25.08;11.27;;;;;;;5.86;100.00;100028.13;5012429;28;20115;-68
2022/12/05 01:25:30;;;;;;;23.02;10.55;;;;;;;5.83;100.00;100022.00;5014717;28;20439;-67
2022/12/05 01:27:56;;;;;;;19.88;9.90;;;;;;;5.84;100.00;100031.66;5012755;28;20040;-67
2022/12/05 01:30:21;;;;;;;24.67;10.10;;;;;;;5.87;100.00;100028.97;5028689;28;20021;-67
2022/12/05 01:32:47;;;;;;;24.65;10.10;;;;;;;5.87;100.00;100028.97;5014502;28;20026;-68
2022/12/05 01:35:12;;;;;;;22.92;10.77;;;;;;;5.85;100.00;100038.69;5012272;28;20101;-67
2022/12/05 01:37:37;;;;;;;21.52;10.52;;;;;;;5.83;100.00;100035.19;5014592;28;20029;-68
2022/12/05 01:40:04;;;;;;;20.85;10.20;;;;;;;5.80;100.00;100040.47;5012171;28;20469;-67
2022/12/05 01:42:29;;;;;;;23.77;10.80;;;;;;;5.79;100.00;100033.44;5013255;28;20109;-67
2022/12/05 01:45:05;;;;;;;22.67;9.30;;;;;;;5.79;100.00;100031.69;5013014;28;20126;-67
2022/12/05 01:47:34;;;;;;;23.90;10.55;;;;;;;5.76;100.00;100030.84;5012094;28;20022;-67
2022/12/05 01:50:00;;;;;;;17.77;9.82;;;;;;;5.74;100.00;100032.63;5011766;28;20034;-68
2022/12/05 01:52:27;;;;;;;20.00;9.68;;;;;;;5.72;100.00;100029.13;5016662;28;20025;-67
2022/12/05 01:54:58;;;;;;;20.17;9.88;;;;;;;5.72;100.00;100042.31;5031302;28;20363;-68
2022/12/05 01:57:24;;;;;;;21.42;9.88;;;;;;;5.67;100.00;100042.38;5028415;28;20504;-67
2022/12/05 01:59:54;;;;;;;20.42;9.93;;;;;;;5.69;100.00;100037.09;5012400;28;20036;-68
2022/12/05 02:02:20;;;;;;;23.27;10.43;;;;;;;5.68;100.00;100048.53;5015704;28;20030;-65
2022/12/05 02:05:01;;;;;;;20.10;9.43;;;;;;;5.66;100.00;100055.59;5027958;28;20098;-65
2022/12/05 02:07:27;;;;;;;18.33;9.90;;;;;;;5.68;100.00;100059.97;5024864;28;20029;-65
2022/12/05 02:09:52;;;;;;;23.48;10.35;;;;;;;5.70;100.00;100065.25;5011516;28;20092;-65
2022/12/05 02:12:20;;;;;;;24.08;11.50;;;;;;;5.70;100.00;100067.88;5011847;28;20026;-65
2022/12/05 02:15:08;;;;;;;20.92;10.43;;;;;;;5.71;100.00;100067.84;5011472;28;20065;-65
2022/12/05 02:17:42;;;;;;;23.63;10.60;;;;;;;5.77;100.00;100074.81;5013802;28;20038;-66
2022/12/05 02:20:52;;;;;;;22.42;10.43;;;;;;;5.77;100.00;100080.09;5027974;28;20116;-65
2022/12/05 02:23:47;;;;;;;17.42;8.73;;;;;;;5.79;100.00;100088.84;5019310;28;20088;-65
2022/12/05 02:26:12;;;;;;;;;;;;;;;5.70;100.00;100089.84;5021787;28;20362;-65
2022/12/05 02:28:43;;;;;;;24.45;10.45;;;;;;;5.69;100.00;100088.09;5011422;28;19920;-65
2022/12/05 02:31:31;;;;;;;23.98;11.90;;;;;;;5.71;100.00;100080.16;5013593;28;20417;-65
2022/12/05 02:34:15;;;;;;;21.92;10.20;;;;;;;5.70;100.00;100095.13;5011309;28;20092;-65
2022/12/05 02:36:58;;;;;;;;;;;;;;;5.71;100.00;100085.44;5013903;28;20037;-65
2022/12/05 02:39:49;;;;;;;24.50;11.88;;;;;;;5.74;100.00;100085.41;5011373;28;19917;-65
2022/12/05 02:42:22;;;;;;;20.13;9.95;;;;;;;5.76;100.00;100088.91;5013364;28;20104;-65
2022/12/05 02:45:03;;;;;;;20.85;9.82;;;;;;;5.76;100.00;100083.63;5011515;28;20022;-65
2022/12/05 02:47:32;;;;;;;22.13;9.90;;;;;;;5.76;100.00;100080.97;5012151;28;20033;-64
2022/12/05 02:49:58;;;;;;;21.10;10.45;;;;;;;5.75;100.00;100079.25;5021753;28;20109;-65
2022/12/05 02:52:24;;;;;;;16.15;9.35;;;;;;;5.76;100.00;100079.22;5011353;28;20109;-65
2022/12/05 02:54:52;;;;;;;19.83;10.63;;;;;;;5.70;100.00;100067.88;5016482;28;20037;-65
2022/12/05 02:57:20;;;;;;;26.13;10.73;;;;;;;5.61;100.00;100046.88;5011061;28;20124;-65
2022/12/05 02:59:45;;;;;;;16.83;8.90;;;;;;;5.75;100.00;100068.69;5012783;28;20160;-65
2022/12/05 03:02:33;;;;;;;25.05;11.15;;;;;;;5.76;100.00;100054.59;5030522;28;20013;-65
2022/12/05 03:05:34;;;;;;;19.65;10.32;;;;;;;5.75;100.00;100060.78;5019390;28;20054;-66
2022/12/05 03:08:02;;;;;;;22.83;9.95;;;;;;;5.84;100.00;100073.88;4999512;28;20054;-65
2022/12/05 03:10:31;;;;;;;20.95;10.52;;;;;;;5.87;100.00;100072.06;5015123;28;20462;-65
2022/12/05 03:13:04;;;;;;;23.02;10.65;;;;;;;5.88;100.00;100076.44;5024449;28;20037;-66
2022/12/05 03:15:39;;;;;;;19.38;9.80;;;;;;;5.91;100.00;100067.63;5014945;28;20133;-65
2022/12/05 03:18:28;;;;;;;23.17;9.65;;;;;;;5.88;100.00;100068.53;5017039;28;20037;-65
2022/12/05 03:21:06;;;;;;;19.45;8.82;;;;;;;5.89;100.00;100069.41;5014790;28;20401;-65
2022/12/05 03:23:36;;;;;;;17.85;9.38;;;;;;;5.89;100.00;100074.69;5017160;28;20026;-65
2022/12/05 03:26:28;;;;;;;19.80;9.52;;;;;;;5.90;100.00;100068.50;5030360;28;20033;-66
2022/12/05 03:29:21;;;;;;;19.42;10.30;;;;;;;5.93;100.00;100060.56;5034481;28;20033;-65
2022/12/05 03:32:04;;;;;;;18.83;9.67;;;;;;;5.96;100.00;100061.41;5034339;28;20036;-65
2022/12/05 03:34:41;;;;;;;16.85;8.30;;;;;;;5.91;100.00;100054.44;5034184;28;20288;-65
2022/12/05 03:37:13;;;;;;;20.73;9.63;;;;;;;6.00;100.00;100067.50;5019975;28;20030;-66
2022/12/05 03:39:46;;;;;;;20.60;9.40;;;;;;;6.00;100.00;100059.56;5014626;28;20049;-65
2022/12/05 03:42:14;;;;;;;16.92;9.32;;;;;;;6.02;100.00;100055.16;5016636;28;20029;-66
2022/12/05 03:45:08;;;;;;;18.30;9.45;;;;;;;5.98;100.00;100061.38;5014394;28;20037;-65
2022/12/05 03:47:56;;;;;;;;;;;;;;;5.97;100.00;100056.97;5015617;28;20390;-65
2022/12/05 03:50:25;;;;;;;19.05;8.75;;;;;;;5.91;100.00;100046.50;5025373;28;19920;-65
2022/12/05 03:52:58;;;;;;;18.90;8.88;;;;;;;5.91;100.00;100054.44;5033784;28;20021;-65
2022/12/05 03:55:26;;;;;;;;;;;;;;;5.92;100.00;100048.25;5032046;28;20112;-65
2022/12/05 03:58:01;;;;;;;17.15;7.90;;;;;;;5.90;100.00;100050.03;5024016;28;19909;-65
2022/12/05 04:00:30;;;;;;;21.73;9.27;;;;;;;5.89;100.00;100054.47;5016689;28;20045;-65
2022/12/05 04:03:18;;;;;;;27.60;9.80;;;;;;;5.76;100.00;100025.56;5018055;28;20041;-65
2022/12/05 04:06:00;;;;;;;24.90;9.35;;;;;;;5.86;100.00;100058.91;5033300;28;20083;-65
2022/12/05 04:08:30;;;;;;;27.25;9.15;;;;;;;5.84;100.00;100050.13;5033754;28;20087;-65
2022/12/05 04:11:00;;;;;;;21.80;9.00;;;;;;;5.83;100.00;100058.94;5033814;28;20053;-65
2022/12/05 04:13:33;;;;;;;30.83;10.85;;;;;;;5.69;100.00;100058.19;5018682;28;20452;-65
2022/12/05 04:19:18;;;;;;;21.05;9.63;;;;;;;5.68;100.00;100065.25;5014754;28;20052;-66
2022/12/05 04:21:51;;;;;;;21.45;9.55;;;;;;;5.74;100.00;100074.84;5013700;28;20049;-65
2022/12/05 04:27:20;;;;;;;16.77;8.60;;;;;;;5.70;100.00;100083.72;5015961;28;20056;-65
2022/12/05 04:30:07;;;;;;;21.88;10.75;;;;;;;5.68;100.00;100090.75;5013613;28;20064;-65
2022/12/05 04:32:44;;;;;;;19.23;10.77;;;;;;;5.66;100.00;100087.25;5015807;28;20041;-65
2022/12/05 04:35:22;;;;;;;22.83;11.80;;;;;;;5.68;100.00;100098.69;5013348;28;20030;-66
2022/12/05 04:37:51;;;;;;;25.27;12.23;;;;;;;5.64;100.00;100108.38;5013297;28;20032;-65
2022/12/05 04:40:29;;;;;;;21.65;9.93;;;;;;;5.63;100.00;100101.38;5013457;28;20025;-66
2022/12/05 04:42:57;;;;;;;20.65;10.55;;;;;;;5.65;100.00;100107.50;5016218;28;20124;-65
2022/12/05 04:45:25;;;;;;;21.52;9.63;;;;;;;5.66;100.00;100109.25;5013268;28;20076;-66
2022/12/05 04:47:56;;;;;;;20.55;9.02;;;;;;;5.65;100.00;100111.91;5013284;28;20049;-66
2022/12/05 04:50:25;;;;;;;22.73;8.32;;;;;;;5.67;100.00;100115.41;5015356;28;20087;-66
2022/12/05 04:52:53;;;;;;;23.40;8.60;;;;;;;5.69;100.00;100118.88;5012876;28;20108;-65
2022/12/05 04:55:24;;;;;;;23.88;9.70;;;;;;;5.68;100.00;100118.03;5013047;28;20064;-66
2022/12/05 04:58:12;;;;;;;24.85;9.25;;;;;;;5.69;100.00;100126.81;5032372;28;20048;-66
2022/12/05 05:01:08;;;;;;;18.23;8.65;;;;;;;5.70;100.00;100125.94;5031463;28;20029;-65
2022/12/05 05:03:58;;;;;;;19.15;8.48;;;;;;;5.72;100.00;100126.75;5026385;28;20039;-65
2022/12/05 05:06:25;;;;;;;19.17;8.85;;;;;;;5.71;100.00;100123.28;5032583;28;20095;-66
2022/12/05 05:08:56;;;;;;;23.67;9.05;;;;;;;5.75;100.00;100129.38;5032751;28;20492;-65
2022/12/05 05:11:27;;;;;;;20.20;9.15;;;;;;;5.76;100.00;100126.72;5021081;28;20022;-65
2022/12/05 05:13:53;;;;;;;22.48;9.07;;;;;;;5.77;100.00;100122.31;5012500;28;20124;-65
2022/12/05 05:16:22;;;;;;;22.52;8.95;;;;;;;5.75;100.00;100121.47;5025329;28;20104;-66
2022/12/05 05:18:48;;;;;;;23.30;8.70;;;;;;;5.73;100.00;100125.88;5021692;28;20136;-65
2022/12/05 05:21:20;;;;;;;23.10;10.40;;;;;;;5.75;100.00;100129.38;5024032;28;20504;-65
2022/12/05 05:23:46;;;;;;;25.30;9.38;;;;;;;5.74;100.00;100135.53;5028176;28;20030;-66
2022/12/05 05:26:11;;;;;;;23.17;11.10;;;;;;;5.72;100.00;100134.69;5032330;28;20060;-65
2022/12/05 05:28:37;;;;;;;22.15;10.60;;;;;;;5.73;100.00;100139.09;5031796;28;20108;-65
2022/12/05 05:31:04;;;;;;;20.35;9.95;;;;;;;5.74;100.00;100139.06;5031937;28;20472;-65
2022/12/05 05:33:30;;;;;;;24.77;10.38;;;;;;;5.77;100.00;100139.03;5024749;28;20030;-65
2022/12/05 05:35:56;;;;;;;20.95;11.20;;;;;;;5.81;100.00;100138.13;5012441;28;20065;-65
2022/12/05 05:38:21;;;;;;;25.63;11.05;;;;;;;5.84;100.00;100147.78;5027413;28;20505;-65
2022/12/05 05:40:46;;;;;;;24.42;9.95;;;;;;;5.85;100.00;100141.63;5012270;28;20044;-66
2022/12/05 05:43:12;;;;;;;32.47;11.93;;;;;;;5.87;100.00;100151.25;5014343;28;20025;-66
2022/12/05 05:45:37;;;;;;;27.65;10.40;;;;;;;5.90;100.00;100148.56;5012103;28;20033;-65
2022/12/05 05:48:03;;;;;;;27.27;10.20;;;;;;;5.92;100.00;100144.16;5012118;28;20026;-65
2022/12/05 05:50:28;;;;;;;27.95;10.95;;;;;;;5.92;100.00;100149.44;5021976;28;20029;-65
2022/12/05 05:52:54;;;;;;;21.50;10.05;;;;;;;5.94;100.00;100155.59;5016227;28;20036;-65
2022/12/05 05:55:19;;;;;;;23.42;10.18;;;;;;;5.96;100.00;100160.84;5011227;28;20034;-65
2022/12/05 05:57:45;;;;;;;20.70;10.20;;;;;;;5.94;100.00;100165.25;5016055;28;20028;-66
2022/12/05 06:00:11;;;;;;;24.30;10.68;;;;;;;5.94;100.00;100158.22;5010690;28;20045;-65
2022/12/05 06:02:37;;;;;;;26.95;11.73;;;;;;;5.95;100.00;100159.06;5026888;28;20034;-65
2022/12/05 06:05:03;;;;;;;22.88;10.32;;;;;;;5.94;100.00;100173.19;5031034;28;20412;-65
2022/12/05 06:07:29;;;;;;;23.73;11.25;;;;;;;5.88;100.00;100170.63;5022737;28;20698;-65
2022/12/05 06:09:55;;;;;;;24.40;9.63;;;;;;;5.80;100.00;100164.53;5011769;28;20030;-65
2022/12/05 06:12:21;;;;;;;34.33;11.77;;;;;;;5.81;100.00;100176.81;5011635;28;20025;-65
2022/12/05 06:14:48;;;;;;;23.77;11.40;;;;;;;5.86;100.00;100182.97;5029030;28;20029;-65
2022/12/05 06:17:13;;;;;;;29.70;12.05;;;;;;;5.86;100.00;100186.47;5031764;28;20100;-66
2022/12/05 06:19:39;;;;;;;21.40;11.50;;;;;;;5.86;100.00;100188.22;5020991;28;20423;-65
2022/12/05 06:22:04;;;;;;;34.35;11.98;;;;;;;5.85;100.00;100191.78;5012620;28;20024;-65
2022/12/05 06:24:29;;;;;;;22.88;11.60;;;;;;;5.85;100.00;100199.69;5029034;28;20113;-65
2022/12/05 06:26:55;;;;;;;22.48;10.77;;;;;;;5.87;100.00;100204.06;5026537;28;20045;-66
2022/12/05 06:29:20;;;;;;;22.23;11.52;;;;;;;5.86;100.00;100198.78;5011342;28;20099;-66
2022/12/05 06:31:46;;;;;;;20.63;10.02;;;;;;;5.85;100.00;100205.81;5013576;28;20030;-66
2022/12/05 06:34:11;;;;;;;22.83;10.05;;;;;;;5.87;100.00;100203.16;5011381;28;20026;-65
2022/12/05 06:36:36;;;;;;;25.65;11.07;;;;;;;5.89;100.00;100214.59;5013037;28;20094;-65
2022/12/05 06:39:02;;;;;;;22.20;10.02;;;;;;;5.88;100.00;100221.63;5011733;28;20083;-65
2022/12/05 06:41:28;;;;;;;24.05;10.70;;;;;;;5.77;100.00;100197.09;5010580;28;20029;-66
2022/12/05 06:43:55;;;;;;;21.35;10.85;;;;;;;5.90;100.00;100229.53;5014211;28;20033;-65
2022/12/05 06:46:21;;;;;;;26.67;12.32;;;;;;;5.87;100.00;100221.63;5011356;28;20374;-66
2022/12/05 06:48:47;;;;;;;29.80;13.52;;;;;;;5.89;100.00;100227.78;5013808;28;20037;-65
2022/12/05 06:51:15;;;;;;;27.65;13.20;;;;;;;5.91;100.00;100226.91;5011481;28;20026;-65
2022/12/05 06:53:41;;;;;;;26.45;12.68;;;;;;;5.88;100.00;100226.91;5011293;28;20094;-65
2022/12/05 06:56:10;;;;;;;24.13;12.20;;;;;;;5.91;100.00;100231.28;5013380;28;20452;-65
2022/12/05 06:58:36;;;;;;;26.90;12.05;;;;;;;5.90;100.00;100221.59;5013361;28;20041;-65
2022/12/05 07:03:48;;;;;;;29.85;11.75;;;;;;;5.93;100.00;100222.44;5030823;28;20091;-65
2022/12/05 07:06:14;;;;;;;23.20;11.88;;;;;;;5.94;100.00;100223.34;5026309;28;20149;-65
2022/12/05 07:08:40;;;;;;;24.75;11.55;;;;;;;5.94;100.00;100223.34;5025814;28;20021;-65
2022/12/05 07:11:06;;;;;;;26.42;12.98;;;;;;;5.93;100.00;100229.53;5028991;28;20037;-66
2022/12/05 07:13:31;;;;;;;26.30;13.77;;;;;;;5.91;100.00;100232.19;5011976;28;20029;-65
2022/12/05 07:15:57;;;;;;;25.98;11.10;;;;;;;5.89;100.00;100236.59;5012024;28;20018;-66
2022/12/05 07:18:23;;;;;;;26.45;12.50;;;;;;;5.85;100.00;100241.94;5015562;28;20064;-65
2022/12/05 07:21:03;;;;;;;24.50;11.35;;;;;;;5.86;100.00;100248.94;5026493;28;20013;-65
2022/12/05 07:23:29;;;;;;;25.05;12.20;;;;;;;5.85;100.00;100250.69;5028517;28;20764;-65
2022/12/05 07:25:56;;;;;;;24.88;13.60;;;;;;;5.86;100.00;100254.22;5012749;28;20030;-65
2022/12/05 07:28:22;;;;;;;23.42;12.18;;;;;;;5.91;100.00;100252.41;5026244;28;20440;-65
2022/12/05 07:30:47;;;;;;;27.55;13.65;;;;;;;5.94;100.00;100262.94;5013114;28;20026;-65
2022/12/05 07:33:12;;;;;;;23.88;12.80;;;;;;;5.95;100.00;100260.28;5010417;28;20472;-66
2022/12/05 07:35:38;;;;;;;27.60;13.73;;;;;;;5.99;100.00;100263.75;5010502;28;20486;-66
2022/12/05 07:38:03;;;;;;;25.55;14.05;;;;;;;5.99;100.00;100266.41;5013453;28;20033;-65
2022/12/05 07:40:29;;;;;;;28.17;13.05;;;;;;;6.04;100.00;100269.88;5030372;28;20079;-65
2022/12/05 07:42:54;;;;;;;30.15;13.55;;;;;;;6.07;100.00;100280.41;5030835;28;20038;-65
2022/12/05 07:45:20;;;;;;;28.10;13.13;;;;;;;6.08;100.00;100279.53;5025663;28;20120;-65
2022/12/05 07:47:46;;;;;;;27.40;12.85;;;;;;;6.11;100.00;100282.13;5030466;28;20021;-65
2022/12/05 07:50:12;;;;;;;26.58;13.05;;;;;;;6.11;100.00;100284.78;5025934;28;20045;-65
2022/12/05 07:52:38;;;;;;;29.52;13.32;;;;;;;6.15;100.00;100289.09;5032531;28;20552;-65
2022/12/05 07:55:04;;;;;;;30.40;15.18;;;;;;;6.12;100.00;100291.78;5019048;28;20109;-65
2022/12/05 07:57:30;;;;;;;32.42;15.52;;;;;;;6.15;100.00;100299.66;5016907;28;20080;-66
2022/12/05 07:59:56;;;;;;;25.77;12.93;;;;;;;6.15;100.00;100290.00;5031362;28;20037;-66
2022/12/05 08:02:21;;;;;;;24.52;12.45;;;;;;;6.19;100.00;100296.13;5034200;28;20025;-65
2022/12/05 08:04:46;;;;;;;27.77;11.57;;;;;;;6.21;100.00;100292.56;5031517;28;20459;-66
2022/12/05 08:07:12;;;;;;;27.63;11.93;;;;;;;6.28;100.00;100290.72;5033549;28;20489;-66
2022/12/05 08:09:37;;;;;;;23.77;12.27;;;;;;;6.30;100.00;100289.84;5031478;28;20060;-65
2022/12/05 08:12:03;;;;;;;23.17;10.95;;;;;;;6.33;100.00;100291.56;5021020;28;20034;-65
2022/12/05 08:14:28;;;;;;;25.20;11.32;;;;;;;6.38;100.00;100287.97;5033496;28;20087;-65
2022/12/05 08:16:54;;;;;;;22.27;9.80;;;;;;;6.42;100.00;100284.41;5017904;28;20022;-66
2022/12/05 08:19:19;;;;;;;28.73;11.00;;;;;;;6.50;100.00;100276.38;5013683;28;20026;-65
2022/12/05 08:21:45;;;;;;;22.90;12.52;;;;;;;6.53;100.00;100284.28;5015841;28;20029;-66
2022/12/05 08:24:11;;;;;;;21.52;10.73;;;;;;;6.56;100.00;100281.59;5013414;28;20025;-65
2022/12/05 08:26:38;;;;;;;25.73;10.98;;;;;;;6.55;100.00;100280.75;5013410;28;20025;-65
2022/12/05 08:29:09;;;;;;;23.58;10.50;;;;;;;6.58;100.00;100285.09;5015639;28;20029;-65
2022/12/05 08:31:39;;;;;;;29.65;12.38;;;;;;;6.58;100.00;100290.38;5013618;28;20034;-65
2022/12/05 08:34:05;;;;;;;26.95;12.77;;;;;;;6.63;100.00;100296.47;5015577;28;20111;-66
2022/12/05 08:36:31;;;;;;;27.65;12.05;;;;;;;6.67;100.00;100295.56;5013355;28;20033;-65
2022/12/05 08:39:02;;;;;;;28.80;11.93;;;;;;;6.70;100.00;100300.81;5013424;28;20034;-66
2022/12/05 08:41:28;;;;;;;25.30;12.25;;;;;;;6.69;100.00;100307.84;5013429;28;20448;-65
2022/12/05 08:44:04;;;;;;;28.08;13.15;;;;;;;6.69;100.00;100314.91;5021607;28;20389;-66
2022/12/05 08:46:33;;;;;;;20.77;10.75;;;;;;;6.73;100.00;100321.91;5032924;28;20034;-65
2022/12/05 08:48:59;;;;;;;23.25;11.85;;;;;;;6.74;100.00;100314.88;5027674;28;20489;-66
2022/12/05 08:51:24;;;;;;;26.95;11.23;;;;;;;6.69;100.00;100318.44;5013063;28;20032;-65
2022/12/05 08:53:50;;;;;;;25.88;13.07;;;;;;;6.69;100.00;100314.91;5013015;28;20034;-65
2022/12/05 08:56:16;;;;;;;31.38;12.25;;;;;;;6.71;100.00;100299.91;5015330;28;20121;-65
2022/12/05 08:58:41;;;;;;;24.73;12.75;;;;;;;6.84;100.00;100304.13;5013362;28;20042;-65
2022/12/05 09:01:10;;;;;;;21.20;11.45;;;;;;;6.91;100.00;100311.09;5015099;28;20033;-66
2022/12/05 09:03:36;;;;;;;25.52;12.40;;;;;;;7.05;100.00;100324.16;5014754;28;20033;-66
2022/12/05 09:06:13;;;;;;;26.27;11.13;;;;;;;7.22;100.00;100323.00;5012582;28;20058;-65
2022/12/05 09:08:40;;;;;;;25.25;12.50;;;;;;;7.49;100.00;100317.31;5014942;28;20431;-66
2022/12/05 09:11:15;;;;;;;27.23;11.98;;;;;;;7.90;100.00;100320.16;5030617;28;20067;-65
2022/12/05 09:13:41;;;;;;;26.02;11.45;;;;;;;8.32;100.00;100330.94;5032521;28;20034;-66
2022/12/05 09:16:08;;;;;;;25.98;12.15;;;;;;;8.93;100.00;100344.72;5018028;28;20033;-65
2022/12/05 09:18:34;;;;;;;29.00;13.80;;;;;;;8.97;100.00;100330.50;5015319;28;20382;-66
2022/12/05 09:21:07;;;;;;;28.48;12.95;;;;;;;8.76;98.12;100352.16;5014647;28;20034;-66
2022/12/05 09:23:32;;;;;;;;;;;;;;;8.62;98.53;100360.38;5012961;28;20378;-65
2022/12/05 09:26:01;;;;;;;25.58;12.40;;;;;;;8.42;98.81;100366.97;5014794;28;19913;-65
2022/12/05 09:28:27;;;;;;;20.90;12.88;;;;;;;8.33;99.94;100369.78;5020582;28;20018;-65
2022/12/05 09:31:04;;;;;;;20.25;11.10;;;;;;;8.62;100.00;100364.78;5010219;28;20507;-65
2022/12/05 09:33:32;;;;;;;21.17;12.18;;;;;;;9.07;100.00;100369.19;5012642;28;20956;-66
2022/12/05 09:36:00;;;;;;;38.45;17.00;;;;;;;9.32;99.02;100363.31;5012012;28;20083;-66
2022/12/05 09:38:26;;;;;;;26.25;13.63;;;;;;;9.29;96.01;100359.88;5011606;28;20091;-65
2022/12/05 09:44:53;;;;;;;20.35;10.63;;;;;;;9.58;96.40;100364.53;4998852;28;20080;-66
2022/12/05 09:47:41;;;;;;;19.70;11.63;;;;;;;9.82;95.65;100364.81;5019627;28;20377;-66
2022/12/05 09:50:18;;;;;;;22.33;10.32;;;;;;;10.43;94.67;100364.16;5018875;28;20041;-66
2022/12/05 09:52:59;;;;;;;22.45;10.38;;;;;;;10.80;89.87;100367.59;5014310;28;20045;-66
2022/12/05 09:55:34;;;;;;;21.02;10.48;;;;;;;11.30;88.21;100363.47;5011320;28;20084;-66
2022/12/05 09:58:01;;;;;;;25.65;10.85;;;;;;;11.13;85.19;100360.44;5031221;28;20056;-66
2022/12/05 10:00:29;;;;;;;20.98;10.18;;;;;;;10.58;85.16;100362.00;5030422;28;20565;-66
2022/12/05 10:03:25;;;;;;;20.58;10.32;;;;;;;10.04;85.71;100363.38;5019459;28;20030;-66
2022/12/05 10:06:13;;;;;;;22.63;10.77;;;;;;;9.77;87.91;100361.38;5013924;28;20049;-66
2022/12/05 10:09:08;;;;;;;20.77;10.68;;;;;;;9.67;89.17;100362.50;5012682;28;20057;-66
2022/12/05 10:12:01;;;;;;;21.77;11.48;;;;;;;9.52;90.88;100359.34;5010748;28;20022;-66
2022/12/05 10:15:00;;;;;;;17.60;9.15;;;;;;;9.47;92.23;100353.28;5023594;28;20121;-66
2022/12/05 10:17:33;;;;;;;19.77;8.93;;;;;;;9.88;92.38;100356.72;5031384;28;20025;-66
2022/12/05 10:20:02;;;;;;;19.33;10.47;;;;;;;10.38;90.09;100345.69;5018341;28;20038;-67
2022/12/05 10:22:39;;;;;;;18.77;10.82;;;;;;;10.56;88.09;100355.81;5020031;28;20072;-66
2022/12/05 10:25:05;;;;;;;24.95;14.18;;;;;;;10.81;86.76;100347.19;5027659;28;20150;-65
2022/12/05 10:27:44;;;;;;;36.13;22.70;;;;;;;10.61;86.43;100345.94;5031310;28;20029;-65
2022/12/05 10:30:14;;;;;;;19.42;9.40;;;;;;;10.38;86.46;100348.34;5030533;28;20025;-64
2022/12/05 10:32:51;;;;;;;17.10;9.55;;;;;;;10.44;86.72;100347.31;5030054;28;20025;-65
2022/12/05 10:35:25;;;;;;;18.50;9.15;;;;;;;10.60;87.33;100338.88;5031010;28;20144;-65
2022/12/05 10:37:55;;;;;;;18.45;9.57;;;;;;;10.47;87.22;100345.47;5031197;28;20053;-66
2022/12/05 10:40:21;;;;;;;16.20;7.97;;;;;;;10.43;87.80;100357.06;5025308;28;20034;-64
2022/12/05 10:42:48;;;;;;;16.60;7.78;;;;;;;10.56;88.23;100350.50;5011475;28;20037;-65
2022/12/05 10:45:18;;;;;;;14.27;7.85;;;;;;;10.86;87.82;100351.44;5011347;28;20103;-65
2022/12/05 10:47:44;;;;;;;14.38;7.60;;;;;;;11.12;86.15;100348.03;5027284;28;20025;-64
2022/12/05 10:50:21;;;;;;;16.50;8.23;;;;;;;11.16;83.75;100355.88;5016308;28;20105;-64
2022/12/05 10:52:46;;;;;;;14.73;6.65;;;;;;;10.99;84.01;100352.00;5010392;28;20088;-64
2022/12/05 10:55:15;;;;;;;14.50;6.90;;;;;;;10.81;83.41;100347.19;5010523;28;20030;-64
2022/12/05 10:57:40;;;;;;;12.73;6.38;;;;;;;10.55;84.53;100339.91;5010434;28;20030;-63
2022/12/05 11:00:14;;;;;;;13.60;6.97;;;;;;;10.47;85.23;100342.78;5012542;28;20040;-65
2022/12/05 11:02:41;;;;;;;12.25;6.15;;;;;;;10.27;85.81;100345.09;5022252;28;20025;-66
2022/12/05 11:05:07;;;;;;;10.25;6.35;;;;;;;10.35;86.15;100353.75;5016141;28;20057;-65
2022/12/05 11:07:47;;;;;;;11.73;5.68;;;;;;;10.50;85.53;100347.16;5011152;28;20033;-65
2022/12/05 11:10:22;;;;;;;11.63;6.10;;;;;;;10.58;85.32;100331.84;5013392;28;20034;-66
2022/12/05 11:12:48;;;;;;;10.57;6.22;;;;;;;10.69;84.75;100343.09;5016968;28;20025;-66
2022/12/05 11:15:20;;;;;;;14.25;5.35;;;;;;;10.50;83.79;100342.72;5030667;28;20033;-64
2022/12/05 11:17:46;;;;;;;11.60;5.88;;;;;;;10.46;83.77;100345.50;5030828;28;20030;-64
2022/12/05 11:20:14;;;;;;;12.35;5.18;;;;;;;10.51;82.16;100347.09;5023602;28;20504;-64
2022/12/05 11:22:40;;;;;;;10.20;5.78;;;;;;;10.48;82.77;100339.22;5030735;28;20025;-64
2022/12/05 11:25:29;;;;;;;9.40;5.57;;;;;;;10.57;82.29;100336.31;5023927;28;20083;-64
2022/12/05 11:27:58;;;;;;;9.15;5.18;;;;;;;10.59;81.75;100347.75;5013177;28;20022;-64
2022/12/05 11:30:27;;;;;;;10.23;5.45;;;;;;;10.49;80.88;100342.75;5014820;28;20033;-64
2022/12/05 11:33:18;;;;;;;13.63;5.53;;;;;;;10.22;82.60;100341.69;5030073;28;20037;-65
2022/12/05 11:35:45;;;;;;;12.40;6.20;;;;;;;10.17;83.90;100348.03;5034274;28;20025;-64
2022/12/05 11:38:11;;;;;;;10.52;5.30;;;;;;;10.16;83.82;100347.19;5034147;28;20216;-65
2022/12/05 11:40:57;;;;;;;10.93;6.05;;;;;;;10.00;84.28;100347.56;5031021;28;20029;-64
2022/12/05 11:43:23;;;;;;;10.60;5.47;;;;;;;9.90;85.53;100346.91;5014574;28;20040;-64